sensor_id;sensor_type;location;lat;lon;timestamp;temperature;humidity
49503;DHT22;35409;48.776;9.204;2022-10-16T00:01:47;15.20;99.90
49503;DHT22;35409;48.776;9.204;2022-10-16T00:04:13;15.20;99.90
49503;DHT22;35409;48.776;9.204;2022-10-16T00:06:38;15.20;99.90
49503;DHT22;35409;48.776;9.204;2022-10-16T00:09:05;15.20;99.90
49503;DHT22;35409;48.776;9.204;2022-10-16T00:11:36;15.10;99.90
49503;DHT22;35409;48.776;9.204;2022-10-16T00:14:06;15.10;99.90
49503;DHT22;35409;48.776;9.204;2022-10-16T00:16:32;15.10;99.90
49503;DHT22;35409;48.776;9.204;2022-10-16T00:18:58;15.10;99.90
49503;DHT22;35409;48.776;9.204;2022-10-16T00:21:26;15.00;99.90
49503;DHT22;35409;48.776;9.204;2022-10-16T00:23:56;15.00;99.90
49503;DHT22;35409;48.776;9.204;2022-10-16T00:26:22;15.00;99.90
49503;DHT22;35409;48.776;9.204;2022-10-16T00:28:49;14.90;99.90
49503;DHT22;35409;48.776;9.204;2022-10-16T00:31:16;14.90;99.90
49503;DHT22;35409;48.776;9.204;2022-10-16T00:33:42;14.90;99.90
49503;DHT22;35409;48.776;9.204;2022-10-16T00:36:11;14.90;99.90
49503;DHT22;35409;48.776;9.204;2022-10-16T00:38:37;14.90;99.90
49503;DHT22;35409;48.776;9.204;2022-10-16T00:41:12;14.90;99.90
49503;DHT22;35409;48.776;9.204;2022-10-16T00:43:44;14.80;99.90
49503;DHT22;35409;48.776;9.204;2022-10-16T00:46:21;14.80;99.90
49503;DHT22;35409;48.776;9.204;2022-10-16T00:49:23;14.80;99.90
49503;DHT22;35409;48.776;9.204;2022-10-16T00:51:50;14.70;99.90
49503;DHT22;35409;48.776;9.204;2022-10-16T00:54:19;14.70;99.90
49503;DHT22;35409;48.776;9.204;2022-10-16T00:56:47;14.70;99.90
49503;DHT22;35409;48.776;9.204;2022-10-16T00:59:27;14.60;99.90
49503;DHT22;35409;48.776;9.204;2022-10-16T01:01:54;14.60;99.90
49503;DHT22;35409;48.776;9.204;2022-10-16T01:04:19;14.60;99.90
49503;DHT22;35409;48.776;9.204;2022-10-16T01:06:57;14.60;99.90
49503;DHT22;35409;48.776;9.204;2022-10-16T01:14:57;14.60;99.90
49503;DHT22;35409;48.776;9.204;2022-10-16T01:17:44;14.60;99.90
49503;DHT22;35409;48.776;9.204;2022-10-16T01:20:33;14.60;99.90
49503;DHT22;35409;48.776;9.204;2022-10-16T01:23:15;14.60;99.90
49503;DHT22;35409;48.776;9.204;2022-10-16T01:26:13;14.60;99.90
49503;DHT22;35409;48.776;9.204;2022-10-16T01:29:09;14.70;99.90
49503;DHT22;35409;48.776;9.204;2022-10-16T01:31:39;14.60;99.90
49503;DHT22;35409;48.776;9.204;2022-10-16T01:34:11;14.60;99.90
49503;DHT22;35409;48.776;9.204;2022-10-16T01:37:07;14.60;99.90
49503;DHT22;35409;48.776;9.204;2022-10-16T01:39:33;14.60;99.90
49503;DHT22;35409;48.776;9.204;2022-10-16T01:42:13;14.60;99.90
49503;DHT22;35409;48.776;9.204;2022-10-16T01:44:41;14.60;99.90
49503;DHT22;35409;48.776;9.204;2022-10-16T01:47:10;14.60;99.90
49503;DHT22;35409;48.776;9.204;2022-10-16T01:49:38;14.70;99.90
49503;DHT22;35409;48.776;9.204;2022-10-16T01:52:09;14.70;99.90
49503;DHT22;35409;48.776;9.204;2022-10-16T01:54:37;14.70;99.90
49503;DHT22;35409;48.776;9.204;2022-10-16T01:57:07;14.70;99.90
49503;DHT22;35409;48.776;9.204;2022-10-16T01:59:36;14.60;99.90
49503;DHT22;35409;48.776;9.204;2022-10-16T02:02:04;14.60;99.90
49503;DHT22;35409;48.776;9.204;2022-10-16T02:04:55;14.70;99.90
49503;DHT22;35409;48.776;9.204;2022-10-16T02:07:19;14.60;99.90
49503;DHT22;35409;48.776;9.204;2022-10-16T02:09:44;14.70;99.90
49503;DHT22;35409;48.776;9.204;2022-10-16T02:12:28;14.60;99.90
49503;DHT22;35409;48.776;9.204;2022-10-16T02:14:55;14.60;99.90
49503;DHT22;35409;48.776;9.204;2022-10-16T02:17:21;14.60;99.90
49503;DHT22;35409;48.776;9.204;2022-10-16T02:19:48;14.60;99.90
49503;DHT22;35409;48.776;9.204;2022-10-16T02:22:30;14.60;99.90
49503;DHT22;35409;48.776;9.204;2022-10-16T02:25:22;14.60;99.90
49503;DHT22;35409;48.776;9.204;2022-10-16T02:28:22;14.60;99.90
49503;DHT22;35409;48.776;9.204;2022-10-16T02:30:58;14.60;99.90
49503;DHT22;35409;48.776;9.204;2022-10-16T02:33:25;14.60;99.90
49503;DHT22;35409;48.776;9.204;2022-10-16T02:35:52;14.60;99.90
49503;DHT22;35409;48.776;9.204;2022-10-16T02:38:20;14.60;99.90
49503;DHT22;35409;48.776;9.204;2022-10-16T02:40:46;14.60;99.90
49503;DHT22;35409;48.776;9.204;2022-10-16T02:43:12;14.60;99.90
49503;DHT22;35409;48.776;9.204;2022-10-16T02:45:38;14.60;99.90
49503;DHT22;35409;48.776;9.204;2022-10-16T02:48:05;14.60;99.90
49503;DHT22;35409;48.776;9.204;2022-10-16T02:50:30;14.60;99.90
49503;DHT22;35409;48.776;9.204;2022-10-16T02:52:56;14.50;99.90
49503;DHT22;35409;48.776;9.204;2022-10-16T02:55:22;14.50;99.90
49503;DHT22;35409;48.776;9.204;2022-10-16T02:57:47;14.50;99.90
49503;DHT22;35409;48.776;9.204;2022-10-16T03:00:15;14.50;99.90
49503;DHT22;35409;48.776;9.204;2022-10-16T03:02:41;14.50;99.90
49503;DHT22;35409;48.776;9.204;2022-10-16T03:05:07;14.50;99.90
49503;DHT22;35409;48.776;9.204;2022-10-16T03:07:33;14.50;99.90
49503;DHT22;35409;48.776;9.204;2022-10-16T03:09:58;14.50;99.90
49503;DHT22;35409;48.776;9.204;2022-10-16T03:12:26;14.40;99.90
49503;DHT22;35409;48.776;9.204;2022-10-16T03:14:52;14.40;99.90
49503;DHT22;35409;48.776;9.204;2022-10-16T03:17:17;14.40;99.90
49503;DHT22;35409;48.776;9.204;2022-10-16T03:19:43;14.40;99.90
49503;DHT22;35409;48.776;9.204;2022-10-16T03:22:08;14.40;99.90
49503;DHT22;35409;48.776;9.204;2022-10-16T03:24:34;14.40;99.90
49503;DHT22;35409;48.776;9.204;2022-10-16T03:27:00;14.40;99.90
49503;DHT22;35409;48.776;9.204;2022-10-16T03:29:26;14.30;99.90
49503;DHT22;35409;48.776;9.204;2022-10-16T03:31:51;14.30;99.90
49503;DHT22;35409;48.776;9.204;2022-10-16T03:34:17;14.30;99.90
49503;DHT22;35409;48.776;9.204;2022-10-16T03:36:42;14.30;99.90
49503;DHT22;35409;48.776;9.204;2022-10-16T03:39:08;14.30;99.90
49503;DHT22;35409;48.776;9.204;2022-10-16T03:41:33;14.30;99.90
49503;DHT22;35409;48.776;9.204;2022-10-16T03:43:59;14.30;99.90
49503;DHT22;35409;48.776;9.204;2022-10-16T03:46:25;14.30;99.90
49503;DHT22;35409;48.776;9.204;2022-10-16T03:48:50;14.20;99.90
49503;DHT22;35409;48.776;9.204;2022-10-16T03:51:16;14.30;99.90
49503;DHT22;35409;48.776;9.204;2022-10-16T03:53:41;14.30;99.90
49503;DHT22;35409;48.776;9.204;2022-10-16T03:56:07;14.30;99.90
49503;DHT22;35409;48.776;9.204;2022-10-16T03:58:33;14.20;99.90
49503;DHT22;35409;48.776;9.204;2022-10-16T04:00:58;14.30;99.90
49503;DHT22;35409;48.776;9.204;2022-10-16T04:03:24;14.30;99.90
49503;DHT22;35409;48.776;9.204;2022-10-16T04:05:50;14.20;99.90
49503;DHT22;35409;48.776;9.204;2022-10-16T04:08:16;14.30;99.90
49503;DHT22;35409;48.776;9.204;2022-10-16T04:10:45;14.20;99.90
49503;DHT22;35409;48.776;9.204;2022-10-16T04:13:11;14.20;99.90
49503;DHT22;35409;48.776;9.204;2022-10-16T04:15:36;14.20;99.90
49503;DHT22;35409;48.776;9.204;2022-10-16T04:18:02;14.20;99.90
49503;DHT22;35409;48.776;9.204;2022-10-16T04:20:28;14.20;99.90
49503;DHT22;35409;48.776;9.204;2022-10-16T04:22:53;14.20;99.90
49503;DHT22;35409;48.776;9.204;2022-10-16T04:25:19;14.20;99.90
49503;DHT22;35409;48.776;9.204;2022-10-16T04:27:45;14.10;99.90
49503;DHT22;35409;48.776;9.204;2022-10-16T04:30:10;14.10;99.90
49503;DHT22;35409;48.776;9.204;2022-10-16T04:32:36;14.10;99.90
49503;DHT22;35409;48.776;9.204;2022-10-16T04:35:02;14.00;99.90
49503;DHT22;35409;48.776;9.204;2022-10-16T04:37:28;14.00;99.90
49503;DHT22;35409;48.776;9.204;2022-10-16T04:39:54;14.00;99.90
49503;DHT22;35409;48.776;9.204;2022-10-16T04:42:20;14.00;99.90
49503;DHT22;35409;48.776;9.204;2022-10-16T04:44:46;14.00;99.90
49503;DHT22;35409;48.776;9.204;2022-10-16T04:47:12;14.00;99.90
49503;DHT22;35409;48.776;9.204;2022-10-16T04:49:38;14.00;99.90
49503;DHT22;35409;48.776;9.204;2022-10-16T04:52:04;14.00;99.90
49503;DHT22;35409;48.776;9.204;2022-10-16T04:54:30;14.00;99.90
49503;DHT22;35409;48.776;9.204;2022-10-16T04:56:56;14.00;99.90
49503;DHT22;35409;48.776;9.204;2022-10-16T04:59:22;14.00;99.90
49503;DHT22;35409;48.776;9.204;2022-10-16T05:01:48;14.00;99.90
49503;DHT22;35409;48.776;9.204;2022-10-16T05:04:14;14.00;99.90
49503;DHT22;35409;48.776;9.204;2022-10-16T05:06:41;14.00;99.90
49503;DHT22;35409;48.776;9.204;2022-10-16T05:09:07;14.00;99.90
49503;DHT22;35409;48.776;9.204;2022-10-16T05:11:34;13.90;99.90
49503;DHT22;35409;48.776;9.204;2022-10-16T05:14:00;14.00;99.90
49503;DHT22;35409;48.776;9.204;2022-10-16T05:16:26;14.00;99.90
49503;DHT22;35409;48.776;9.204;2022-10-16T05:18:52;14.00;99.90
49503;DHT22;35409;48.776;9.204;2022-10-16T05:21:18;13.90;99.90
49503;DHT22;35409;48.776;9.204;2022-10-16T05:23:43;14.00;99.90
49503;DHT22;35409;48.776;9.204;2022-10-16T05:26:09;13.90;99.90
49503;DHT22;35409;48.776;9.204;2022-10-16T05:28:34;13.90;99.90
49503;DHT22;35409;48.776;9.204;2022-10-16T05:31:07;13.90;99.90
49503;DHT22;35409;48.776;9.204;2022-10-16T05:33:33;13.90;99.90
49503;DHT22;35409;48.776;9.204;2022-10-16T05:36:03;13.90;99.90
49503;DHT22;35409;48.776;9.204;2022-10-16T05:38:29;13.90;99.90
49503;DHT22;35409;48.776;9.204;2022-10-16T05:40:54;13.80;99.90
49503;DHT22;35409;48.776;9.204;2022-10-16T05:43:20;13.80;99.90
49503;DHT22;35409;48.776;9.204;2022-10-16T05:45:57;13.80;99.90
49503;DHT22;35409;48.776;9.204;2022-10-16T05:48:23;13.80;99.90
49503;DHT22;35409;48.776;9.204;2022-10-16T05:51:00;13.80;99.90
49503;DHT22;35409;48.776;9.204;2022-10-16T05:53:27;13.70;99.90
49503;DHT22;35409;48.776;9.204;2022-10-16T05:55:54;13.70;99.90
49503;DHT22;35409;48.776;9.204;2022-10-16T05:58:20;13.70;99.90
49503;DHT22;35409;48.776;9.204;2022-10-16T06:00:56;13.70;99.90
49503;DHT22;35409;48.776;9.204;2022-10-16T06:03:22;13.80;99.90
49503;DHT22;35409;48.776;9.204;2022-10-16T06:05:48;13.80;99.90
49503;DHT22;35409;48.776;9.204;2022-10-16T06:08:13;13.80;99.90
49503;DHT22;35409;48.776;9.204;2022-10-16T06:10:39;13.80;99.90
49503;DHT22;35409;48.776;9.204;2022-10-16T06:13:05;13.90;99.90
49503;DHT22;35409;48.776;9.204;2022-10-16T06:15:30;13.90;99.90
49503;DHT22;35409;48.776;9.204;2022-10-16T06:17:56;13.90;99.90
49503;DHT22;35409;48.776;9.204;2022-10-16T06:20:21;14.00;99.90
49503;DHT22;35409;48.776;9.204;2022-10-16T06:22:47;14.00;99.90
49503;DHT22;35409;48.776;9.204;2022-10-16T06:25:13;14.00;99.90
49503;DHT22;35409;48.776;9.204;2022-10-16T06:27:41;14.00;99.90
49503;DHT22;35409;48.776;9.204;2022-10-16T06:30:07;14.10;99.90
49503;DHT22;35409;48.776;9.204;2022-10-16T06:32:34;14.10;99.90
49503;DHT22;35409;48.776;9.204;2022-10-16T06:35:00;14.10;99.90
49503;DHT22;35409;48.776;9.204;2022-10-16T06:37:26;14.20;99.90
49503;DHT22;35409;48.776;9.204;2022-10-16T06:39:52;14.20;99.90
49503;DHT22;35409;48.776;9.204;2022-10-16T06:42:18;14.30;99.90
49503;DHT22;35409;48.776;9.204;2022-10-16T06:44:44;14.30;99.90
49503;DHT22;35409;48.776;9.204;2022-10-16T06:47:10;14.40;99.90
49503;DHT22;35409;48.776;9.204;2022-10-16T06:49:36;14.50;99.90
49503;DHT22;35409;48.776;9.204;2022-10-16T06:52:01;14.50;99.90
49503;DHT22;35409;48.776;9.204;2022-10-16T06:54:28;14.60;99.90
49503;DHT22;35409;48.776;9.204;2022-10-16T06:56:53;14.60;99.90
49503;DHT22;35409;48.776;9.204;2022-10-16T06:59:23;14.70;99.90
49503;DHT22;35409;48.776;9.204;2022-10-16T07:01:48;14.80;99.90
49503;DHT22;35409;48.776;9.204;2022-10-16T07:04:14;14.80;99.90
49503;DHT22;35409;48.776;9.204;2022-10-16T07:06:40;14.90;99.90
49503;DHT22;35409;48.776;9.204;2022-10-16T07:09:08;14.90;99.90
49503;DHT22;35409;48.776;9.204;2022-10-16T07:11:34;15.00;99.90
49503;DHT22;35409;48.776;9.204;2022-10-16T07:14:02;15.10;99.90
49503;DHT22;35409;48.776;9.204;2022-10-16T07:16:30;15.20;99.90
49503;DHT22;35409;48.776;9.204;2022-10-16T07:18:57;15.30;99.90
49503;DHT22;35409;48.776;9.204;2022-10-16T07:21:29;15.30;99.90
49503;DHT22;35409;48.776;9.204;2022-10-16T07:23:57;15.40;99.90
49503;DHT22;35409;48.776;9.204;2022-10-16T07:26:23;15.50;99.90
49503;DHT22;35409;48.776;9.204;2022-10-16T07:28:50;15.50;99.90
49503;DHT22;35409;48.776;9.204;2022-10-16T07:31:16;15.60;99.90
49503;DHT22;35409;48.776;9.204;2022-10-16T07:33:43;15.60;99.90
49503;DHT22;35409;48.776;9.204;2022-10-16T07:36:10;15.60;99.90
49503;DHT22;35409;48.776;9.204;2022-10-16T07:38:35;15.60;99.90
49503;DHT22;35409;48.776;9.204;2022-10-16T07:41:03;15.60;99.90
49503;DHT22;35409;48.776;9.204;2022-10-16T07:43:30;15.60;99.90
49503;DHT22;35409;48.776;9.204;2022-10-16T07:45:56;15.60;99.90
49503;DHT22;35409;48.776;9.204;2022-10-16T07:48:22;15.70;99.90
49503;DHT22;35409;48.776;9.204;2022-10-16T07:50:48;15.70;99.90
49503;DHT22;35409;48.776;9.204;2022-10-16T07:53:14;15.70;99.90
49503;DHT22;35409;48.776;9.204;2022-10-16T07:55:40;15.80;99.90
49503;DHT22;35409;48.776;9.204;2022-10-16T07:58:06;15.90;99.90
49503;DHT22;35409;48.776;9.204;2022-10-16T08:00:32;15.90;99.90
49503;DHT22;35409;48.776;9.204;2022-10-16T08:02:59;16.00;99.90
49503;DHT22;35409;48.776;9.204;2022-10-16T08:05:32;16.10;99.90
49503;DHT22;35409;48.776;9.204;2022-10-16T08:07:58;16.20;99.90
49503;DHT22;35409;48.776;9.204;2022-10-16T08:10:25;16.30;99.90
49503;DHT22;35409;48.776;9.204;2022-10-16T08:12:52;16.40;99.90
49503;DHT22;35409;48.776;9.204;2022-10-16T08:15:18;16.60;99.90
49503;DHT22;35409;48.776;9.204;2022-10-16T08:17:44;16.70;99.90
49503;DHT22;35409;48.776;9.204;2022-10-16T08:20:10;16.80;99.90
49503;DHT22;35409;48.776;9.204;2022-10-16T08:22:36;17.00;99.90
49503;DHT22;35409;48.776;9.204;2022-10-16T08:25:02;17.20;99.90
49503;DHT22;35409;48.776;9.204;2022-10-16T08:27:32;17.30;99.90
49503;DHT22;35409;48.776;9.204;2022-10-16T08:29:58;17.60;99.90
49503;DHT22;35409;48.776;9.204;2022-10-16T08:32:23;17.80;99.90
49503;DHT22;35409;48.776;9.204;2022-10-16T08:34:49;17.80;99.90
49503;DHT22;35409;48.776;9.204;2022-10-16T08:37:14;18.00;99.90
49503;DHT22;35409;48.776;9.204;2022-10-16T08:39:40;18.10;99.90
49503;DHT22;35409;48.776;9.204;2022-10-16T08:48:02;18.30;99.90
49503;DHT22;35409;48.776;9.204;2022-10-16T08:50:32;18.50;99.90
49503;DHT22;35409;48.776;9.204;2022-10-16T08:52:58;18.50;99.90
49503;DHT22;35409;48.776;9.204;2022-10-16T08:55:52;18.60;99.90
49503;DHT22;35409;48.776;9.204;2022-10-16T08:58:23;18.60;99.90
49503;DHT22;35409;48.776;9.204;2022-10-16T09:00:56;18.60;99.90
49503;DHT22;35409;48.776;9.204;2022-10-16T09:06:57;18.70;99.90
49503;DHT22;35409;48.776;9.204;2022-10-16T09:12:19;19.00;99.90
49503;DHT22;35409;48.776;9.204;2022-10-16T09:17:24;19.30;99.90
49503;DHT22;35409;48.776;9.204;2022-10-16T09:22:29;19.60;99.90
49503;DHT22;35409;48.776;9.204;2022-10-16T09:25:00;19.80;99.90
49503;DHT22;35409;48.776;9.204;2022-10-16T09:27:26;20.00;99.90
49503;DHT22;35409;48.776;9.204;2022-10-16T09:29:52;20.00;99.90
49503;DHT22;35409;48.776;9.204;2022-10-16T09:32:19;19.90;99.90
49503;DHT22;35409;48.776;9.204;2022-10-16T09:34:53;19.90;99.90
49503;DHT22;35409;48.776;9.204;2022-10-16T09:37:22;19.80;99.90
49503;DHT22;35409;48.776;9.204;2022-10-16T09:39:51;19.80;99.90
49503;DHT22;35409;48.776;9.204;2022-10-16T09:42:22;19.90;99.90
49503;DHT22;35409;48.776;9.204;2022-10-16T09:44:52;20.00;99.90
49503;DHT22;35409;48.776;9.204;2022-10-16T09:47:22;20.10;99.90
49503;DHT22;35409;48.776;9.204;2022-10-16T09:52:47;20.20;99.90
49503;DHT22;35409;48.776;9.204;2022-10-16T09:55:18;20.20;99.90
49503;DHT22;35409;48.776;9.204;2022-10-16T09:57:54;20.30;99.90
49503;DHT22;35409;48.776;9.204;2022-10-16T10:00:24;20.40;99.90
49503;DHT22;35409;48.776;9.204;2022-10-16T10:02:49;20.40;99.90
49503;DHT22;35409;48.776;9.204;2022-10-16T10:05:27;20.60;99.90
49503;DHT22;35409;48.776;9.204;2022-10-16T10:07:58;20.60;99.90
49503;DHT22;35409;48.776;9.204;2022-10-16T10:10:33;20.60;99.90
49503;DHT22;35409;48.776;9.204;2022-10-16T10:12:59;20.80;99.90
49503;DHT22;35409;48.776;9.204;2022-10-16T10:15:27;20.90;99.90
49503;DHT22;35409;48.776;9.204;2022-10-16T10:17:56;20.90;99.90
49503;DHT22;35409;48.776;9.204;2022-10-16T10:20:33;20.90;99.90
49503;DHT22;35409;48.776;9.204;2022-10-16T10:23:01;20.90;99.90
49503;DHT22;35409;48.776;9.204;2022-10-16T10:31:01;21.00;99.90
49503;DHT22;35409;48.776;9.204;2022-10-16T10:33:49;21.00;99.90
49503;DHT22;35409;48.776;9.204;2022-10-16T10:52:57;21.90;99.90
49503;DHT22;35409;48.776;9.204;2022-10-16T10:55:25;22.00;99.90
49503;DHT22;35409;48.776;9.204;2022-10-16T10:58:12;22.10;99.90
49503;DHT22;35409;48.776;9.204;2022-10-16T11:03:27;22.20;99.90
49503;DHT22;35409;48.776;9.204;2022-10-16T11:11:13;22.40;99.90
49503;DHT22;35409;48.776;9.204;2022-10-16T11:13:59;22.40;99.90
49503;DHT22;35409;48.776;9.204;2022-10-16T11:16:41;22.50;99.90
49503;DHT22;35409;48.776;9.204;2022-10-16T11:21:44;22.80;99.90
49503;DHT22;35409;48.776;9.204;2022-10-16T11:24:41;22.80;99.90
49503;DHT22;35409;48.776;9.204;2022-10-16T11:27:09;22.90;99.90
49503;DHT22;35409;48.776;9.204;2022-10-16T11:29:58;22.90;99.90
49503;DHT22;35409;48.776;9.204;2022-10-16T11:32:32;22.90;99.90
49503;DHT22;35409;48.776;9.204;2022-10-16T11:35:11;23.00;99.90
49503;DHT22;35409;48.776;9.204;2022-10-16T11:37:43;23.00;99.90
49503;DHT22;35409;48.776;9.204;2022-10-16T11:40:25;23.10;99.90
49503;DHT22;35409;48.776;9.204;2022-10-16T11:43:13;23.20;99.90
49503;DHT22;35409;48.776;9.204;2022-10-16T11:45:43;23.40;99.90
49503;DHT22;35409;48.776;9.204;2022-10-16T11:48:33;23.40;99.90
49503;DHT22;35409;48.776;9.204;2022-10-16T11:51:30;23.50;99.90
49503;DHT22;35409;48.776;9.204;2022-10-16T11:53:59;23.70;99.90
49503;DHT22;35409;48.776;9.204;2022-10-16T11:56:28;23.80;99.90
49503;DHT22;35409;48.776;9.204;2022-10-16T11:59:02;24.00;99.90
49503;DHT22;35409;48.776;9.204;2022-10-16T12:01:52;24.30;99.90
49503;DHT22;35409;48.776;9.204;2022-10-16T12:04:26;24.80;99.90
49503;DHT22;35409;48.776;9.204;2022-10-16T12:07:24;25.20;99.90
49503;DHT22;35409;48.776;9.204;2022-10-16T12:09:53;25.90;99.80
49503;DHT22;35409;48.776;9.204;2022-10-16T12:12:38;26.30;99.20
49503;DHT22;35409;48.776;9.204;2022-10-16T12:15:32;26.50;98.40
49503;DHT22;35409;48.776;9.204;2022-10-16T12:17:58;26.60;97.60
49503;DHT22;35409;48.776;9.204;2022-10-16T12:20:32;26.50;97.40
49503;DHT22;35409;48.776;9.204;2022-10-16T12:23:06;26.60;96.40
49503;DHT22;35409;48.776;9.204;2022-10-16T12:25:39;26.80;95.90
49503;DHT22;35409;48.776;9.204;2022-10-16T12:30:41;27.40;94.40
49503;DHT22;35409;48.776;9.204;2022-10-16T12:33:30;27.50;94.70
49503;DHT22;35409;48.776;9.204;2022-10-16T12:35:59;27.50;93.90
49503;DHT22;35409;48.776;9.204;2022-10-16T12:41:05;27.10;93.80
49503;DHT22;35409;48.776;9.204;2022-10-16T12:43:40;27.20;94.00
49503;DHT22;35409;48.776;9.204;2022-10-16T12:48:41;27.80;93.00
49503;DHT22;35409;48.776;9.204;2022-10-16T12:51:33;27.80;92.50
49503;DHT22;35409;48.776;9.204;2022-10-16T12:59:46;27.70;92.30
49503;DHT22;35409;48.776;9.204;2022-10-16T13:05:26;26.70;92.90
49503;DHT22;35409;48.776;9.204;2022-10-16T13:08:05;26.10;93.50
49503;DHT22;35409;48.776;9.204;2022-10-16T13:10:46;25.60;94.00
49503;DHT22;35409;48.776;9.204;2022-10-16T13:16:07;24.90;95.40
49503;DHT22;35409;48.776;9.204;2022-10-16T13:21:33;25.10;95.90
49503;DHT22;35409;48.776;9.204;2022-10-16T13:27:20;25.10;96.80
49503;DHT22;35409;48.776;9.204;2022-10-16T13:29:53;25.00;96.60
49503;DHT22;35409;48.776;9.204;2022-10-16T13:32:21;24.90;96.50
49503;DHT22;35409;48.776;9.204;2022-10-16T13:34:48;24.80;97.10
49503;DHT22;35409;48.776;9.204;2022-10-16T13:37:32;24.70;97.30
49503;DHT22;35409;48.776;9.204;2022-10-16T13:40:20;24.60;97.30
49503;DHT22;35409;48.776;9.204;2022-10-16T13:42:46;24.60;97.80
49503;DHT22;35409;48.776;9.204;2022-10-16T13:45:20;24.60;97.80
49503;DHT22;35409;48.776;9.204;2022-10-16T13:47:46;24.60;98.20
49503;DHT22;35409;48.776;9.204;2022-10-16T13:50:17;24.70;98.00
49503;DHT22;35409;48.776;9.204;2022-10-16T13:52:43;24.80;96.90
49503;DHT22;35409;48.776;9.204;2022-10-16T13:55:17;24.80;97.60
49503;DHT22;35409;48.776;9.204;2022-10-16T13:57:44;24.80;97.60
49503;DHT22;35409;48.776;9.204;2022-10-16T14:00:26;24.80;97.10
49503;DHT22;35409;48.776;9.204;2022-10-16T14:03:06;24.80;96.50
49503;DHT22;35409;48.776;9.204;2022-10-16T14:05:33;24.80;96.90
49503;DHT22;35409;48.776;9.204;2022-10-16T14:08:00;24.60;97.40
49503;DHT22;35409;48.776;9.204;2022-10-16T14:10:31;24.50;98.00
49503;DHT22;35409;48.776;9.204;2022-10-16T14:13:05;24.40;99.00
49503;DHT22;35409;48.776;9.204;2022-10-16T14:15:32;24.20;99.80
49503;DHT22;35409;48.776;9.204;2022-10-16T14:17:59;24.10;99.70
49503;DHT22;35409;48.776;9.204;2022-10-16T14:20:28;23.90;99.90
49503;DHT22;35409;48.776;9.204;2022-10-16T14:23:18;23.90;99.90
49503;DHT22;35409;48.776;9.204;2022-10-16T14:25:44;23.80;99.90
49503;DHT22;35409;48.776;9.204;2022-10-16T14:30:53;23.50;99.90
49503;DHT22;35409;48.776;9.204;2022-10-16T14:36:14;23.10;99.90
49503;DHT22;35409;48.776;9.204;2022-10-16T14:38:43;23.10;99.90
49503;DHT22;35409;48.776;9.204;2022-10-16T14:41:13;22.90;99.90
49503;DHT22;35409;48.776;9.204;2022-10-16T14:43:42;22.90;99.90
49503;DHT22;35409;48.776;9.204;2022-10-16T14:46:30;22.80;99.90
49503;DHT22;35409;48.776;9.204;2022-10-16T14:51:34;22.70;99.90
49503;DHT22;35409;48.776;9.204;2022-10-16T14:53:59;22.70;99.90
49503;DHT22;35409;48.776;9.204;2022-10-16T14:56:30;22.70;99.90
49503;DHT22;35409;48.776;9.204;2022-10-16T14:58:56;22.70;99.90
49503;DHT22;35409;48.776;9.204;2022-10-16T15:01:22;22.70;99.90
49503;DHT22;35409;48.776;9.204;2022-10-16T15:03:49;22.60;99.90
49503;DHT22;35409;48.776;9.204;2022-10-16T15:06:15;22.50;99.90
49503;DHT22;35409;48.776;9.204;2022-10-16T15:08:41;22.50;99.90
49503;DHT22;35409;48.776;9.204;2022-10-16T15:11:13;22.40;99.90
49503;DHT22;35409;48.776;9.204;2022-10-16T15:13:39;22.40;99.90
49503;DHT22;35409;48.776;9.204;2022-10-16T15:16:10;22.30;99.90
49503;DHT22;35409;48.776;9.204;2022-10-16T15:18:36;22.30;99.90
49503;DHT22;35409;48.776;9.204;2022-10-16T15:21:02;22.30;99.90
49503;DHT22;35409;48.776;9.204;2022-10-16T15:23:28;22.20;99.90
49503;DHT22;35409;48.776;9.204;2022-10-16T15:25:55;22.20;99.90
49503;DHT22;35409;48.776;9.204;2022-10-16T15:28:22;22.20;99.90
49503;DHT22;35409;48.776;9.204;2022-10-16T15:30:55;22.10;99.90
49503;DHT22;35409;48.776;9.204;2022-10-16T15:33:24;22.10;99.90
49503;DHT22;35409;48.776;9.204;2022-10-16T15:35:53;22.00;99.90
49503;DHT22;35409;48.776;9.204;2022-10-16T15:38:20;21.90;99.90
49503;DHT22;35409;48.776;9.204;2022-10-16T15:40:46;21.70;99.90
49503;DHT22;35409;48.776;9.204;2022-10-16T15:43:12;21.60;99.90
49503;DHT22;35409;48.776;9.204;2022-10-16T15:45:38;21.50;99.90
49503;DHT22;35409;48.776;9.204;2022-10-16T15:48:04;21.40;99.90
49503;DHT22;35409;48.776;9.204;2022-10-16T15:50:30;21.30;99.90
49503;DHT22;35409;48.776;9.204;2022-10-16T15:52:57;21.20;99.90
49503;DHT22;35409;48.776;9.204;2022-10-16T15:55:22;21.10;99.90
49503;DHT22;35409;48.776;9.204;2022-10-16T15:57:48;21.00;99.90
49503;DHT22;35409;48.776;9.204;2022-10-16T16:00:16;20.90;99.90
49503;DHT22;35409;48.776;9.204;2022-10-16T16:02:43;20.80;99.90
49503;DHT22;35409;48.776;9.204;2022-10-16T16:05:10;20.70;99.90
49503;DHT22;35409;48.776;9.204;2022-10-16T16:07:38;20.60;99.90
49503;DHT22;35409;48.776;9.204;2022-10-16T16:10:06;20.60;99.90
49503;DHT22;35409;48.776;9.204;2022-10-16T16:12:33;20.40;99.90
49503;DHT22;35409;48.776;9.204;2022-10-16T16:14:59;20.30;99.90
49503;DHT22;35409;48.776;9.204;2022-10-16T16:17:24;20.20;99.90
49503;DHT22;35409;48.776;9.204;2022-10-16T16:19:51;20.10;99.90
49503;DHT22;35409;48.776;9.204;2022-10-16T16:22:16;19.90;99.90
49503;DHT22;35409;48.776;9.204;2022-10-16T16:24:42;19.80;99.90
49503;DHT22;35409;48.776;9.204;2022-10-16T16:27:08;19.60;99.90
49503;DHT22;35409;48.776;9.204;2022-10-16T16:29:33;19.50;99.90
49503;DHT22;35409;48.776;9.204;2022-10-16T16:32:00;19.40;99.90
49503;DHT22;35409;48.776;9.204;2022-10-16T16:34:29;19.20;99.90
49503;DHT22;35409;48.776;9.204;2022-10-16T16:36:55;19.10;99.90
49503;DHT22;35409;48.776;9.204;2022-10-16T16:39:22;19.00;99.90
49503;DHT22;35409;48.776;9.204;2022-10-16T16:41:48;18.80;99.90
49503;DHT22;35409;48.776;9.204;2022-10-16T16:44:15;18.80;99.90
49503;DHT22;35409;48.776;9.204;2022-10-16T16:46:41;18.70;99.90
49503;DHT22;35409;48.776;9.204;2022-10-16T16:49:12;18.60;99.90
49503;DHT22;35409;48.776;9.204;2022-10-16T16:51:38;18.50;99.90
49503;DHT22;35409;48.776;9.204;2022-10-16T16:54:04;18.50;99.90
49503;DHT22;35409;48.776;9.204;2022-10-16T16:56:32;18.40;99.90
49503;DHT22;35409;48.776;9.204;2022-10-16T16:58:58;18.30;99.90
49503;DHT22;35409;48.776;9.204;2022-10-16T17:01:25;18.20;99.90
49503;DHT22;35409;48.776;9.204;2022-10-16T17:03:52;18.20;99.90
49503;DHT22;35409;48.776;9.204;2022-10-16T17:06:20;18.20;99.90
49503;DHT22;35409;48.776;9.204;2022-10-16T17:08:45;18.10;99.90
49503;DHT22;35409;48.776;9.204;2022-10-16T17:11:17;18.00;99.90
49503;DHT22;35409;48.776;9.204;2022-10-16T17:13:43;18.00;99.90
49503;DHT22;35409;48.776;9.204;2022-10-16T17:16:10;17.90;99.90
49503;DHT22;35409;48.776;9.204;2022-10-16T17:18:36;17.90;99.90